createdAt,value
2016-08-21T04:00:37.944Z,4
2016-08-21T04:01:03.490Z,4
2016-08-21T04:01:29.067Z,4
2016-08-21T04:01:54.673Z,4
2016-08-21T04:02:20.330Z,4
2016-08-21T04:02:45.800Z,4
2016-08-21T04:03:11.499Z,4
2016-08-21T04:03:37.083Z,4
2016-08-21T04:04:02.656Z,0
2016-08-21T04:04:28.216Z,0
2016-08-21T04:04:53.852Z,0
2016-08-21T04:05:19.415Z,0
2016-08-21T04:05:44.985Z,4
2016-08-21T04:06:10.536Z,4
2016-08-21T04:06:36.108Z,4
2016-08-21T04:07:01.658Z,4
2016-08-21T04:07:27.222Z,4
2016-08-21T04:07:52.799Z,4
2016-08-21T04:08:18.468Z,4
2016-08-21T04:08:44.043Z,4
2016-08-21T04:09:09.615Z,4
2016-08-21T04:09:35.184Z,8
2016-08-21T04:10:00.753Z,4
2016-08-21T04:10:26.338Z,4
2016-08-21T04:10:51.950Z,4
2016-08-21T04:11:17.649Z,4
2016-08-21T04:11:43.195Z,4
2016-08-21T04:12:08.802Z,4
2016-08-21T04:12:34.394Z,8
2016-08-21T04:12:59.976Z,8
2016-08-21T04:13:25.564Z,8
2016-08-21T04:13:51.118Z,8
2016-08-21T04:14:16.680Z,8
2016-08-21T04:14:42.249Z,4
2016-08-21T04:15:07.808Z,4
2016-08-21T04:15:33.379Z,8
2016-08-21T04:15:58.950Z,8
2016-08-21T04:16:24.504Z,8
2016-08-21T04:16:50.050Z,8
2016-08-21T04:17:15.608Z,8
2016-08-21T04:17:41.236Z,8
2016-08-21T04:18:06.799Z,12
2016-08-21T04:18:32.354Z,8
2016-08-21T04:18:57.920Z,8
2016-08-21T04:19:23.487Z,8
2016-08-21T04:19:49.040Z,8
2016-08-21T04:20:14.597Z,12
2016-08-21T04:20:40.158Z,12
2016-08-21T04:21:05.718Z,12
2016-08-21T04:21:31.271Z,12
2016-08-21T04:21:56.829Z,8
2016-08-21T04:22:22.518Z,12
2016-08-21T04:22:48.070Z,12
2016-08-21T04:23:13.736Z,12
2016-08-21T04:23:39.381Z,12
2016-08-21T04:24:04.963Z,16
2016-08-21T04:24:30.543Z,12
2016-08-21T04:24:56.138Z,16
2016-08-21T04:25:21.782Z,16
2016-08-21T04:25:47.347Z,16
2016-08-21T04:26:12.916Z,12
2016-08-21T04:26:38.486Z,16
2016-08-21T04:27:04.065Z,16
2016-08-21T04:27:29.643Z,16
2016-08-21T04:27:55.214Z,16
2016-08-21T04:28:20.766Z,20
2016-08-21T04:28:46.324Z,20
2016-08-21T04:29:11.948Z,20
2016-08-21T04:29:37.513Z,16
2016-08-21T04:30:03.086Z,20
2016-08-21T04:30:28.757Z,20
2016-08-21T04:30:54.330Z,20
2016-08-21T04:31:19.885Z,20
2016-08-21T04:31:45.487Z,20
2016-08-21T04:32:11.037Z,24
2016-08-21T04:32:36.589Z,20
2016-08-21T04:33:02.163Z,20
2016-08-21T04:33:27.720Z,20
2016-08-21T04:33:53.264Z,24
2016-08-21T04:34:18.819Z,24
2016-08-21T04:34:44.493Z,24
2016-08-21T04:35:10.061Z,24
2016-08-21T04:35:35.727Z,24
2016-08-21T04:36:01.272Z,24
2016-08-21T04:36:26.848Z,28
2016-08-21T04:36:52.468Z,24
2016-08-21T04:37:18.031Z,24
2016-08-21T04:37:43.598Z,28
2016-08-21T04:38:09.168Z,28
2016-08-21T04:38:34.744Z,28
2016-08-21T04:39:00.303Z,28
2016-08-21T04:39:25.950Z,28
2016-08-21T04:39:51.535Z,32
2016-08-21T04:40:17.096Z,28
2016-08-21T04:40:42.676Z,32
2016-08-21T04:41:08.297Z,32
2016-08-21T04:41:33.864Z,32
2016-08-21T04:41:59.523Z,36
2016-08-21T04:42:25.112Z,32
2016-08-21T04:42:50.696Z,36
2016-08-21T04:43:16.253Z,36
2016-08-21T04:43:41.846Z,40
2016-08-21T04:44:07.422Z,36
2016-08-21T04:44:33.026Z,40
2016-08-21T04:44:58.569Z,40
2016-08-21T04:45:24.132Z,44
2016-08-21T04:46:47.956Z,48
2016-08-21T04:47:13.519Z,48
2016-08-21T04:47:39.200Z,48
2016-08-21T04:48:04.762Z,48
2016-08-21T04:48:30.295Z,52
2016-08-21T04:48:55.969Z,52
2016-08-21T04:49:21.530Z,52
2016-08-21T04:49:47.096Z,56
2016-08-21T04:50:12.663Z,56
2016-08-21T04:50:38.264Z,60
2016-08-21T04:51:03.845Z,60
2016-08-21T04:51:29.593Z,60
2016-08-21T04:51:55.174Z,60
2016-08-21T04:52:20.741Z,64
2016-08-21T04:52:46.303Z,68
2016-08-21T04:53:11.875Z,68
2016-08-21T04:53:37.424Z,68
2016-08-21T04:54:03.009Z,72
2016-08-21T04:54:28.578Z,84
2016-08-21T04:54:54.143Z,84
2016-08-21T04:55:19.711Z,88
2016-08-21T04:55:45.275Z,88
2016-08-21T04:56:10.842Z,88
2016-08-21T04:56:36.426Z,88
2016-08-21T04:57:02.024Z,88
2016-08-21T04:57:27.575Z,84
2016-08-21T04:57:53.129Z,84
2016-08-21T04:58:18.704Z,84
2016-08-21T04:58:44.385Z,88
2016-08-21T04:59:09.934Z,88
2016-08-21T05:00:33.662Z,92
2016-08-21T05:00:59.245Z,96
2016-08-21T05:01:24.802Z,96
2016-08-21T05:03:31.935Z,96
2016-08-21T05:03:57.533Z,96
2016-08-21T05:04:23.163Z,96
2016-08-21T05:04:48.730Z,96
2016-08-21T05:05:14.434Z,96
2016-08-21T05:05:40.064Z,96
2016-08-21T05:06:05.630Z,96
2016-08-21T05:06:31.164Z,96
2016-08-21T05:06:56.735Z,100
2016-08-21T05:07:22.305Z,104
2016-08-21T05:07:47.874Z,104
2016-08-21T05:08:13.465Z,104
2016-08-21T05:08:39.036Z,108
2016-08-21T05:09:04.609Z,112
2016-08-21T05:09:30.243Z,120
2016-08-21T05:09:55.808Z,132
2016-08-21T05:10:21.397Z,136
2016-08-21T05:10:46.971Z,136
2016-08-21T05:11:12.541Z,132
2016-08-21T05:11:38.110Z,124
2016-08-21T05:12:03.676Z,120
2016-08-21T05:12:29.244Z,116
2016-08-21T05:12:55.078Z,120
2016-08-21T05:13:20.632Z,124
2016-08-21T05:13:46.203Z,120
2016-08-21T05:14:11.768Z,124
2016-08-21T05:14:37.328Z,124
2016-08-21T05:15:02.898Z,128
2016-08-21T05:15:28.564Z,128
2016-08-21T05:15:54.126Z,128
2016-08-21T05:16:19.714Z,128
2016-08-21T05:16:45.360Z,132
2016-08-21T05:17:10.908Z,132
2016-08-21T05:17:36.466Z,128
2016-08-21T05:18:02.030Z,120
2016-08-21T05:18:27.640Z,116
2016-08-21T05:18:53.209Z,112
2016-08-21T05:19:18.787Z,112
2016-08-21T05:19:44.383Z,108
2016-08-21T05:20:10.008Z,96
2016-08-21T05:20:35.563Z,88
2016-08-21T05:21:01.130Z,88
2016-08-21T05:21:26.668Z,84
2016-08-21T05:21:52.230Z,84
2016-08-21T05:22:17.799Z,76
2016-08-21T05:22:43.350Z,80
2016-08-21T05:23:08.911Z,76
2016-08-21T05:23:34.475Z,76
2016-08-21T05:24:00.060Z,76
2016-08-21T05:24:25.624Z,76
2016-08-21T05:24:51.205Z,72
2016-08-21T05:25:16.777Z,76
2016-08-21T05:25:42.355Z,76
2016-08-21T05:26:07.914Z,76
2016-08-21T05:26:33.489Z,76
2016-08-21T05:26:59.065Z,76
2016-08-21T05:27:24.632Z,76
2016-08-21T05:27:50.372Z,80
2016-08-21T05:28:15.926Z,80
2016-08-21T05:28:41.537Z,88
2016-08-21T05:29:07.129Z,100
2016-08-21T05:29:32.691Z,104
2016-08-21T05:29:58.267Z,108
2016-08-21T05:30:23.935Z,108
2016-08-21T05:30:49.512Z,108
2016-08-21T05:31:15.093Z,108
2016-08-21T05:31:40.660Z,108
2016-08-21T05:32:06.235Z,108
2016-08-21T05:32:31.789Z,108
2016-08-21T05:32:57.372Z,112
2016-08-21T05:33:22.938Z,112
2016-08-21T05:33:48.502Z,112
2016-08-21T05:34:14.137Z,112
2016-08-21T05:34:39.711Z,116
2016-08-21T05:35:05.275Z,116
2016-08-21T05:35:30.868Z,116
2016-08-21T05:35:56.428Z,120
2016-08-21T05:36:22.008Z,120
2016-08-21T05:36:47.566Z,116
2016-08-21T05:37:13.128Z,116
2016-08-21T05:37:38.702Z,112
2016-08-21T05:38:04.276Z,104
2016-08-21T05:38:29.882Z,104
2016-08-21T05:38:55.462Z,104
2016-08-21T05:39:21.038Z,104
2016-08-21T05:39:46.596Z,108
2016-08-21T05:40:12.179Z,112
2016-08-21T05:40:37.730Z,120
2016-08-21T05:41:03.311Z,128
2016-08-21T05:41:28.877Z,136
2016-08-21T05:41:54.494Z,140
2016-08-21T05:42:20.056Z,144
2016-08-21T05:42:45.618Z,144
2016-08-21T05:43:11.160Z,148
2016-08-21T05:43:36.720Z,156
2016-08-21T05:44:02.267Z,152
2016-08-21T05:44:27.902Z,156
2016-08-21T05:44:53.504Z,156
2016-08-21T05:45:19.083Z,160
2016-08-21T05:45:44.650Z,164
2016-08-21T05:46:10.220Z,176
2016-08-21T05:46:35.785Z,180
2016-08-21T05:47:01.443Z,192
2016-08-21T05:47:27.001Z,204
2016-08-21T05:47:52.566Z,220
2016-08-21T05:48:18.272Z,240
2016-08-21T05:48:43.855Z,256
2016-08-21T05:49:09.431Z,288
2016-08-21T05:49:34.996Z,316
2016-08-21T05:50:00.549Z,268
2016-08-21T05:50:26.100Z,244
2016-08-21T05:50:51.846Z,224
2016-08-21T05:51:17.419Z,208
2016-08-21T05:51:42.984Z,196
2016-08-21T05:52:08.562Z,188
2016-08-21T05:52:34.124Z,188
2016-08-21T05:52:59.683Z,228
2016-08-21T05:53:25.338Z,320
2016-08-21T05:53:50.897Z,380
2016-08-21T05:54:16.472Z,388
2016-08-21T05:54:42.046Z,396
2016-08-21T05:55:07.626Z,404
2016-08-21T05:55:33.205Z,412
2016-08-21T05:55:58.826Z,420
2016-08-21T05:56:24.398Z,420
2016-08-21T05:56:49.974Z,424
2016-08-21T05:57:15.645Z,420
2016-08-21T05:57:41.302Z,416
2016-08-21T05:58:06.848Z,404
2016-08-21T05:58:32.415Z,396
2016-08-21T05:58:57.973Z,384
2016-08-21T05:59:23.543Z,368
2016-08-21T05:59:49.121Z,352
2016-08-21T06:01:12.950Z,300
2016-08-21T06:01:38.584Z,292
2016-08-21T06:02:04.130Z,280
2016-08-21T06:02:29.745Z,272
2016-08-21T06:02:55.275Z,264
2016-08-21T06:03:20.851Z,264
2016-08-21T06:03:46.427Z,260
2016-08-21T06:04:12.007Z,260
2016-08-21T06:04:37.572Z,264
2016-08-21T06:05:03.115Z,260
2016-08-21T06:05:28.656Z,260
2016-08-21T06:05:54.228Z,256
2016-08-21T06:06:19.795Z,256
2016-08-21T06:06:45.415Z,256
2016-08-21T06:07:10.995Z,252
2016-08-21T06:07:36.560Z,236
2016-08-21T06:08:02.110Z,232
2016-08-21T06:08:27.683Z,244
2016-08-21T06:08:53.396Z,244
2016-08-21T06:09:19.039Z,244
2016-08-21T06:09:44.599Z,244
2016-08-21T06:10:10.151Z,244
2016-08-21T06:10:35.720Z,244
2016-08-21T06:11:01.406Z,248
2016-08-21T06:11:26.990Z,252
2016-08-21T06:11:52.594Z,256
2016-08-21T06:12:18.170Z,256
2016-08-21T06:12:43.755Z,252
2016-08-21T06:13:09.307Z,260
2016-08-21T06:13:34.873Z,252
2016-08-21T06:14:00.434Z,264
2016-08-21T06:14:25.991Z,264
2016-08-21T06:14:51.565Z,260
2016-08-21T06:15:17.151Z,256
2016-08-21T06:15:42.748Z,248
2016-08-21T06:16:08.296Z,244
2016-08-21T06:16:33.902Z,244
2016-08-21T06:16:59.526Z,244
2016-08-21T06:17:25.162Z,244
2016-08-21T06:17:50.715Z,236
2016-08-21T06:18:16.404Z,236
2016-08-21T06:18:42.016Z,232
2016-08-21T06:19:07.586Z,236
2016-08-21T06:19:33.113Z,232
2016-08-21T06:19:58.697Z,232
2016-08-21T06:20:24.265Z,232
2016-08-21T06:20:49.908Z,232
2016-08-21T06:21:15.457Z,232
2016-08-21T06:21:41.022Z,232
2016-08-21T06:22:06.593Z,232
2016-08-21T06:22:32.162Z,228
2016-08-21T06:22:57.735Z,228
2016-08-21T06:23:23.429Z,228
2016-08-21T06:23:49.014Z,228
2016-08-21T06:24:14.586Z,228
2016-08-21T06:24:40.243Z,224
2016-08-21T06:25:05.819Z,228
2016-08-21T06:25:31.398Z,228
2016-08-21T06:25:56.958Z,228
2016-08-21T06:26:22.581Z,228
2016-08-21T06:26:48.161Z,228
2016-08-21T06:27:13.882Z,228
2016-08-21T06:27:39.486Z,212
2016-08-21T06:28:05.063Z,184
2016-08-21T06:28:30.655Z,184
2016-08-21T06:28:56.208Z,180
2016-08-21T06:29:21.782Z,148
2016-08-21T06:29:47.386Z,168
2016-08-21T06:30:12.950Z,212
2016-08-21T06:30:38.564Z,220
2016-08-21T06:31:04.331Z,212
2016-08-21T06:31:29.909Z,200
2016-08-21T06:31:55.530Z,212
2016-08-21T06:32:21.090Z,216
2016-08-21T06:32:46.668Z,212
2016-08-21T06:33:12.241Z,212
2016-08-21T06:33:37.799Z,208
2016-08-21T06:34:03.411Z,208
2016-08-21T06:34:28.963Z,204
2016-08-21T06:34:54.499Z,188
2016-08-21T06:35:20.067Z,204
2016-08-21T06:35:45.638Z,196
2016-08-21T06:36:11.255Z,204
2016-08-21T06:36:36.811Z,204
2016-08-21T06:37:02.387Z,196
2016-08-21T06:37:27.953Z,204
2016-08-21T06:37:53.760Z,200
2016-08-21T06:38:19.322Z,196
2016-08-21T06:38:44.908Z,200
2016-08-21T06:39:10.536Z,196
2016-08-21T06:39:36.115Z,192
2016-08-21T06:40:01.694Z,192
2016-08-21T06:40:27.274Z,192
2016-08-21T06:40:52.836Z,192
2016-08-21T06:41:18.419Z,192
2016-08-21T06:41:43.974Z,188
2016-08-21T06:42:09.542Z,184
2016-08-21T06:42:35.091Z,184
2016-08-21T06:43:00.656Z,184
2016-08-21T06:43:26.232Z,184
2016-08-21T06:43:51.776Z,184
2016-08-21T06:44:17.397Z,184
2016-08-21T06:44:42.960Z,180
2016-08-21T06:45:08.640Z,180
2016-08-21T06:45:34.202Z,180
2016-08-21T06:45:59.802Z,180
2016-08-21T06:46:25.479Z,176
2016-08-21T06:46:50.997Z,176
2016-08-21T06:47:16.554Z,176
2016-08-21T06:47:42.113Z,172
2016-08-21T06:48:07.684Z,172
2016-08-21T06:48:33.258Z,172
2016-08-21T06:48:59.007Z,172
2016-08-21T06:49:24.594Z,172
2016-08-21T06:49:50.181Z,172
2016-08-21T06:50:15.750Z,172
2016-08-21T06:50:41.307Z,168
2016-08-21T06:51:06.904Z,172
2016-08-21T06:51:32.482Z,168
2016-08-21T06:51:58.066Z,168
2016-08-21T06:52:23.822Z,164
2016-08-21T06:52:49.459Z,168
2016-08-21T06:53:14.983Z,164
2016-08-21T06:53:40.635Z,168
2016-08-21T06:54:06.212Z,164
2016-08-21T06:54:31.767Z,164
2016-08-21T06:54:57.444Z,164
2016-08-21T06:55:23.022Z,164
2016-08-21T06:55:48.840Z,164
2016-08-21T06:56:14.456Z,164
2016-08-21T06:56:40.036Z,160
2016-08-21T06:57:43.369Z,160
2016-08-21T06:58:09.123Z,160
2016-08-21T06:58:34.692Z,160
2016-08-21T06:59:00.269Z,156
2016-08-21T06:59:25.844Z,156
2016-08-21T06:59:51.417Z,156
2016-08-21T07:00:17.031Z,156
2016-08-21T07:00:42.581Z,156
2016-08-21T07:01:08.224Z,152
2016-08-21T07:01:33.710Z,156
2016-08-21T07:01:59.289Z,148
2016-08-21T07:02:24.856Z,152
2016-08-21T07:02:50.534Z,144
2016-08-21T07:03:16.096Z,152
2016-08-21T07:03:41.686Z,136
2016-08-21T07:04:07.300Z,116
2016-08-21T07:04:32.857Z,136
2016-08-21T07:04:58.425Z,140
2016-08-21T07:05:23.991Z,148
2016-08-21T07:05:49.699Z,148
2016-08-21T07:06:15.292Z,148
2016-08-21T07:06:40.908Z,140
2016-08-21T07:07:06.435Z,104
2016-08-21T07:07:31.967Z,96
2016-08-21T07:07:57.715Z,92
2016-08-21T07:08:23.265Z,84
2016-08-21T07:08:48.843Z,88
2016-08-21T07:09:14.412Z,80
2016-08-21T07:09:40.053Z,80
2016-08-21T07:10:05.687Z,88
2016-08-21T07:10:31.254Z,88
2016-08-21T07:10:56.801Z,80
2016-08-21T07:11:22.360Z,80
2016-08-21T07:11:47.913Z,84
2016-08-21T07:12:13.472Z,104
2016-08-21T07:12:39.014Z,104
2016-08-21T07:13:42.281Z,132
2016-08-21T07:14:07.865Z,128
2016-08-21T07:14:33.449Z,132
2016-08-21T07:14:59.042Z,132
2016-08-21T07:15:24.656Z,132
2016-08-21T07:15:50.211Z,132
2016-08-21T07:16:15.788Z,132
2016-08-21T07:16:41.390Z,132
2016-08-21T07:17:07.090Z,136
2016-08-21T07:17:32.811Z,128
2016-08-21T07:17:58.375Z,124
2016-08-21T07:18:23.920Z,124
2016-08-21T07:18:49.596Z,124
2016-08-21T07:19:15.240Z,128
2016-08-21T07:19:40.872Z,128
2016-08-21T07:20:06.419Z,132
2016-08-21T07:20:31.990Z,128
2016-08-21T07:20:57.542Z,128
2016-08-21T07:21:23.122Z,128
2016-08-21T07:22:36.644Z,128
2016-08-21T07:23:02.203Z,132
2016-08-21T07:23:27.772Z,124
2016-08-21T07:23:53.516Z,128
2016-08-21T07:24:19.122Z,120
2016-08-21T07:24:44.704Z,128
2016-08-21T07:25:10.265Z,120
2016-08-21T07:25:35.851Z,124
2016-08-21T07:26:01.552Z,120
2016-08-21T07:26:27.112Z,116
2016-08-21T07:26:52.672Z,116
2016-08-21T07:27:18.233Z,120
2016-08-21T07:27:43.791Z,120
2016-08-21T07:28:09.382Z,120
2016-08-21T07:28:34.954Z,116
2016-08-21T07:29:00.563Z,116
2016-08-21T07:29:26.187Z,120
2016-08-21T07:29:51.859Z,124
2016-08-21T07:30:17.507Z,128
2016-08-21T07:30:43.069Z,124
2016-08-21T07:31:08.727Z,124
2016-08-21T07:31:34.296Z,124
2016-08-21T07:32:42.579Z,124
2016-08-21T07:33:08.157Z,124
2016-08-21T07:33:33.709Z,120
2016-08-21T07:33:59.329Z,124
2016-08-21T07:34:24.908Z,120
2016-08-21T07:34:50.553Z,124
2016-08-21T07:35:16.089Z,124
2016-08-21T07:35:41.625Z,128
2016-08-21T07:36:07.201Z,124
2016-08-21T07:36:32.743Z,124
2016-08-21T07:36:58.305Z,128
2016-08-21T07:37:23.941Z,128
2016-08-21T07:37:49.586Z,124
2016-08-21T07:38:15.175Z,128
2016-08-21T07:38:40.746Z,128
2016-08-21T07:39:06.406Z,132
2016-08-21T07:39:31.978Z,136
2016-08-21T07:39:57.574Z,140
2016-08-21T07:40:23.170Z,144
2016-08-21T07:40:48.740Z,144
2016-08-21T07:41:14.323Z,144
2016-08-21T07:41:40.108Z,132
2016-08-21T07:42:05.837Z,132
2016-08-21T07:42:31.398Z,128
2016-08-21T07:42:57.065Z,140
2016-08-21T07:43:22.635Z,132
2016-08-21T07:43:48.199Z,144
2016-08-21T07:44:13.764Z,152
2016-08-21T07:44:39.337Z,152
2016-08-21T07:45:04.896Z,156
2016-08-21T07:45:30.472Z,160
2016-08-21T07:45:56.035Z,152
2016-08-21T07:46:21.626Z,148
2016-08-21T07:46:47.209Z,132
2016-08-21T07:47:12.799Z,156
2016-08-21T07:47:38.356Z,144
2016-08-21T07:48:03.925Z,148
2016-08-21T07:48:29.489Z,140
2016-08-21T07:48:55.082Z,140
2016-08-21T07:49:20.782Z,136
2016-08-21T07:49:46.367Z,132
2016-08-21T07:50:11.946Z,128
2016-08-21T07:51:25.367Z,128
2016-08-21T07:51:50.938Z,136
2016-08-21T07:52:16.585Z,136
2016-08-21T07:52:42.211Z,140
2016-08-21T07:53:07.782Z,124
2016-08-21T07:53:33.352Z,124
2016-08-21T07:53:58.903Z,152
2016-08-21T07:54:24.456Z,152
2016-08-21T07:54:50.064Z,152
2016-08-21T07:55:15.614Z,160
2016-08-21T07:55:41.192Z,156
2016-08-21T07:56:06.778Z,156
2016-08-21T07:56:32.323Z,152
2016-08-21T07:56:57.899Z,156
2016-08-21T07:57:23.576Z,152
2016-08-21T07:57:49.137Z,152
2016-08-21T07:58:14.707Z,140
2016-08-21T07:58:40.625Z,136
2016-08-21T07:59:06.160Z,132
2016-08-21T07:59:31.862Z,128
2016-08-21T07:59:57.439Z,116
2016-08-21T08:00:22.991Z,116
2016-08-21T08:00:48.643Z,108
2016-08-21T08:01:14.191Z,116
2016-08-21T08:01:39.764Z,116
2016-08-21T08:02:05.349Z,120
2016-08-21T08:02:30.903Z,124
2016-08-21T08:02:56.452Z,116
2016-08-21T08:03:22.026Z,116
2016-08-21T08:03:47.593Z,116
2016-08-21T08:04:13.373Z,120
2016-08-21T08:04:38.956Z,124
2016-08-21T08:05:04.527Z,148
2016-08-21T08:05:30.076Z,152
2016-08-21T08:06:43.623Z,152
2016-08-21T08:07:09.212Z,148
2016-08-21T08:07:34.836Z,136
2016-08-21T08:08:00.406Z,148
2016-08-21T08:08:26.002Z,168
2016-08-21T08:08:51.594Z,168
2016-08-21T08:09:17.139Z,160
2016-08-21T08:09:42.671Z,148
2016-08-21T08:10:08.232Z,168
2016-08-21T08:10:33.809Z,188
2016-08-21T08:10:59.392Z,196
2016-08-21T08:11:25.026Z,200
2016-08-21T08:11:50.653Z,192
2016-08-21T08:12:16.304Z,220
2016-08-21T08:12:41.872Z,212
2016-08-21T08:13:07.444Z,204
2016-08-21T08:13:32.992Z,192
2016-08-21T08:13:58.621Z,184
2016-08-21T08:14:24.201Z,176
2016-08-21T08:14:49.767Z,164
2016-08-21T08:15:15.446Z,188
2016-08-21T08:16:44.499Z,204
2016-08-21T08:17:10.068Z,184
2016-08-21T08:17:35.836Z,172
2016-08-21T08:18:01.616Z,164
2016-08-21T08:18:27.214Z,144
2016-08-21T08:18:52.757Z,136
2016-08-21T08:19:18.306Z,144
2016-08-21T08:19:44.150Z,168
2016-08-21T08:20:09.712Z,164
2016-08-21T08:20:35.860Z,152
2016-08-21T08:21:01.621Z,140
2016-08-21T08:21:27.519Z,132
2016-08-21T08:21:53.157Z,136
2016-08-21T08:22:18.737Z,140
2016-08-21T08:22:44.915Z,144
2016-08-21T08:23:10.527Z,144
2016-08-21T08:23:36.752Z,140
2016-08-21T08:24:02.330Z,144
2016-08-21T08:24:27.928Z,148
2016-08-21T08:24:54.056Z,160
2016-08-21T08:25:19.665Z,152
2016-08-21T08:25:45.862Z,148
2016-08-21T08:26:11.432Z,136
2016-08-21T08:26:37.654Z,132
2016-08-21T08:27:03.275Z,128
2016-08-21T08:27:28.852Z,124
2016-08-21T08:27:54.998Z,120
2016-08-21T08:28:20.550Z,104
2016-08-21T08:28:46.771Z,104
2016-08-21T08:29:12.382Z,96
2016-08-21T08:29:37.956Z,96
2016-08-21T08:30:04.148Z,104
2016-08-21T08:30:29.694Z,116
2016-08-21T08:30:55.933Z,116
2016-08-21T08:31:21.519Z,108
2016-08-21T08:31:47.764Z,104
2016-08-21T08:32:13.361Z,100
2016-08-21T08:33:16.569Z,112
2016-08-21T08:33:42.146Z,76
2016-08-21T08:34:07.697Z,132
2016-08-21T08:34:33.262Z,132
2016-08-21T08:34:58.831Z,116
2016-08-21T08:35:24.390Z,104
2016-08-21T08:35:49.956Z,108
2016-08-21T08:36:15.520Z,132
2016-08-21T08:36:41.060Z,168
2016-08-21T08:37:06.641Z,188
2016-08-21T08:37:32.333Z,216
2016-08-21T08:37:57.937Z,224
2016-08-21T08:38:23.508Z,224
2016-08-21T08:38:49.074Z,196
2016-08-21T08:39:14.663Z,196
2016-08-21T08:39:40.280Z,200
2016-08-21T08:40:05.841Z,200
2016-08-21T08:40:31.445Z,200
2016-08-21T08:41:39.722Z,248
2016-08-21T08:42:05.394Z,228
2016-08-21T08:42:31.134Z,184
2016-08-21T08:42:56.887Z,188
2016-08-21T08:43:22.469Z,196
2016-08-21T08:43:48.072Z,196
2016-08-21T08:44:13.658Z,184
2016-08-21T08:44:39.203Z,168
2016-08-21T08:45:04.826Z,156
2016-08-21T08:45:30.400Z,160
2016-08-21T08:45:55.976Z,164
2016-08-21T08:46:21.674Z,164
2016-08-21T08:46:47.237Z,160
2016-08-21T08:47:12.807Z,156
2016-08-21T08:47:38.406Z,152
2016-08-21T08:48:03.956Z,144
2016-08-21T08:48:29.536Z,140
2016-08-21T08:48:55.101Z,136
2016-08-21T08:49:20.668Z,144
2016-08-21T08:49:46.230Z,148
2016-08-21T08:50:11.786Z,140
2016-08-21T08:50:37.366Z,140
2016-08-21T08:51:02.940Z,128
2016-08-21T08:51:28.531Z,140
2016-08-21T08:51:54.115Z,132
2016-08-21T08:52:19.691Z,136
2016-08-21T08:52:45.264Z,144
2016-08-21T08:53:10.832Z,148
2016-08-21T08:53:36.395Z,148
2016-08-21T08:54:01.965Z,148
2016-08-21T08:54:27.612Z,152
2016-08-21T08:54:53.180Z,168
2016-08-21T08:55:18.748Z,176
2016-08-21T08:56:42.389Z,176
2016-08-21T08:57:07.943Z,180
2016-08-21T08:57:33.514Z,180
2016-08-21T08:57:59.226Z,180
2016-08-21T08:58:24.795Z,184
2016-08-21T08:58:50.372Z,188
2016-08-21T08:59:15.933Z,188
2016-08-21T08:59:41.554Z,188
2016-08-21T09:00:07.134Z,188
2016-08-21T09:00:32.700Z,188
2016-08-21T09:00:58.285Z,188
2016-08-21T09:01:23.839Z,188
2016-08-21T09:01:49.422Z,192
2016-08-21T09:02:14.987Z,196
2016-08-21T09:02:40.567Z,204
2016-08-21T09:03:06.237Z,204
2016-08-21T09:03:31.842Z,200
2016-08-21T09:03:57.397Z,200
2016-08-21T09:04:23.068Z,204
2016-08-21T09:04:48.634Z,204
2016-08-21T09:05:14.218Z,216
2016-08-21T09:05:39.757Z,228
2016-08-21T09:06:05.357Z,212
2016-08-21T09:06:30.924Z,216
2016-08-21T09:06:56.496Z,220
2016-08-21T09:07:22.044Z,232
2016-08-21T09:07:47.606Z,208
2016-08-21T09:08:13.164Z,208
2016-08-21T09:08:38.740Z,204
2016-08-21T09:09:04.316Z,208
2016-08-21T09:09:30.000Z,212
2016-08-21T09:09:55.574Z,220
2016-08-21T09:10:21.128Z,228
2016-08-21T09:10:46.819Z,232
2016-08-21T09:11:12.380Z,200
2016-08-21T09:11:37.951Z,184
2016-08-21T09:12:03.510Z,200
2016-08-21T09:12:29.096Z,236
2016-08-21T09:12:54.678Z,244
2016-08-21T09:13:20.280Z,240
2016-08-21T09:13:45.830Z,224
2016-08-21T09:14:11.398Z,212
2016-08-21T09:14:36.979Z,212
2016-08-21T09:15:02.534Z,220
2016-08-21T09:15:28.103Z,196
2016-08-21T09:15:53.676Z,188
2016-08-21T09:16:19.245Z,180
2016-08-21T09:16:44.815Z,212
2016-08-21T09:17:10.383Z,220
2016-08-21T09:17:35.964Z,216
2016-08-21T09:18:01.527Z,208
2016-08-21T09:18:27.198Z,200
2016-08-21T09:21:24.871Z,156
2016-08-21T09:21:56.083Z,148
2016-08-21T09:22:21.658Z,148
2016-08-21T09:22:47.247Z,148
2016-08-21T09:23:12.842Z,152
2016-08-21T09:23:38.418Z,140
2016-08-21T09:24:03.995Z,136
2016-08-21T09:24:29.646Z,128
2016-08-21T09:24:55.213Z,128
2016-08-21T09:25:20.800Z,136
2016-08-21T09:25:46.370Z,140
2016-08-21T09:26:11.956Z,136
2016-08-21T09:26:37.524Z,136
2016-08-21T09:27:03.153Z,152
2016-08-21T09:27:28.745Z,156
2016-08-21T09:27:54.322Z,164
2016-08-21T09:28:19.905Z,168
2016-08-21T09:28:45.476Z,172
2016-08-21T09:29:11.382Z,176
2016-08-21T09:29:37.293Z,180
2016-08-21T09:30:03.363Z,192
2016-08-21T09:30:28.937Z,192
2016-08-21T09:30:54.514Z,208
2016-08-21T09:31:20.104Z,188
2016-08-21T09:31:45.667Z,212
2016-08-21T09:32:11.226Z,204
2016-08-21T09:32:36.803Z,204
2016-08-21T09:33:02.362Z,204
2016-08-21T09:33:27.945Z,184
2016-08-21T09:33:53.611Z,180
2016-08-21T09:34:19.208Z,172
2016-08-21T09:34:44.855Z,172
2016-08-21T09:35:10.451Z,172
2016-08-21T09:35:36.020Z,172
2016-08-21T09:36:01.580Z,180
2016-08-21T09:36:27.251Z,196
2016-08-21T09:36:53.049Z,184
2016-08-21T09:37:18.651Z,188
2016-08-21T09:37:44.224Z,176
2016-08-21T09:38:09.803Z,168
2016-08-21T09:38:35.497Z,168
2016-08-21T09:39:01.131Z,172
2016-08-21T09:39:26.695Z,172
2016-08-21T09:39:52.381Z,180
2016-08-21T09:40:17.953Z,184
2016-08-21T09:40:43.525Z,196
2016-08-21T09:41:09.170Z,188
2016-08-21T09:41:34.749Z,188
2016-08-21T09:42:00.324Z,164
2016-08-21T09:42:25.893Z,164
2016-08-21T09:42:51.512Z,184
2016-08-21T09:43:17.135Z,188
2016-08-21T09:43:42.760Z,184
2016-08-21T09:44:08.353Z,184
2016-08-21T09:44:33.928Z,212
2016-08-21T09:44:59.497Z,216
2016-08-21T09:45:25.079Z,180
2016-08-21T09:45:50.698Z,184
2016-08-21T09:46:16.259Z,196
2016-08-21T09:46:41.829Z,204
2016-08-21T09:47:07.420Z,172
2016-08-21T09:47:33.334Z,160
2016-08-21T09:47:58.757Z,164
2016-08-21T09:48:24.429Z,172
2016-08-21T09:48:49.991Z,184
2016-08-21T09:49:15.611Z,184
2016-08-21T09:49:41.183Z,188
2016-08-21T09:50:06.746Z,184
2016-08-21T09:50:32.379Z,176
2016-08-21T09:50:58.057Z,172
2016-08-21T09:51:23.715Z,176
2016-08-21T09:51:49.305Z,176
2016-08-21T09:52:14.878Z,180
2016-08-21T09:52:40.484Z,180
2016-08-21T09:53:06.043Z,176
2016-08-21T09:53:31.585Z,172
2016-08-21T09:53:57.231Z,172
2016-08-21T09:54:22.782Z,184
2016-08-21T09:54:48.403Z,212
2016-08-21T09:55:13.975Z,220
2016-08-21T09:55:39.545Z,216
2016-08-21T09:56:05.139Z,196
2016-08-21T09:56:30.787Z,188
2016-08-21T09:56:56.440Z,172
2016-08-21T09:57:22.007Z,164
2016-08-21T09:57:47.572Z,160
2016-08-21T09:58:13.305Z,160
2016-08-21T09:58:38.996Z,160
2016-08-21T09:59:04.627Z,160
2016-08-21T09:59:30.203Z,156
2016-08-21T09:59:55.817Z,156
2016-08-21T10:00:21.373Z,168
2016-08-21T10:00:46.933Z,180
2016-08-21T10:01:12.691Z,176
2016-08-21T10:01:38.532Z,156
2016-08-21T10:02:04.095Z,144
2016-08-21T10:02:29.669Z,152
2016-08-21T10:02:55.233Z,164
2016-08-21T10:03:20.852Z,176
2016-08-21T10:03:46.415Z,180
2016-08-21T10:04:11.985Z,180
2016-08-21T10:04:37.580Z,184
2016-08-21T10:05:03.199Z,188
2016-08-21T10:05:28.755Z,196
2016-08-21T10:05:54.391Z,196
2016-08-21T10:06:19.963Z,184
2016-08-21T10:06:45.589Z,180
2016-08-21T10:07:11.153Z,168
2016-08-21T10:07:36.734Z,156
2016-08-21T10:08:02.302Z,140
2016-08-21T10:08:27.919Z,120
2016-08-21T10:08:53.481Z,104
2016-08-21T10:09:19.066Z,104
2016-08-21T10:09:44.680Z,108
2016-08-21T10:10:10.281Z,112
2016-08-21T10:10:35.872Z,112
2016-08-21T10:11:01.432Z,116